sensor_id;sensor_type;location;lat;lon;timestamp;temperature;humidity
46926;DHT22;32667;48.248;-1.700;2024-03-17T00:01:40;13.90;76.70
46926;DHT22;32667;48.248;-1.700;2024-03-17T00:04:07;13.80;76.70
46926;DHT22;32667;48.248;-1.700;2024-03-17T00:06:35;13.90;76.80
46926;DHT22;32667;48.248;-1.700;2024-03-17T00:09:00;13.80;76.80
46926;DHT22;32667;48.248;-1.700;2024-03-17T00:11:32;13.80;76.80
46926;DHT22;32667;48.248;-1.700;2024-03-17T00:14:00;13.80;76.80
46926;DHT22;32667;48.248;-1.700;2024-03-17T00:16:29;13.80;76.80
46926;DHT22;32667;48.248;-1.700;2024-03-17T00:18:54;13.80;76.90
46926;DHT22;32667;48.248;-1.700;2024-03-17T00:21:21;13.80;76.90
46926;DHT22;32667;48.248;-1.700;2024-03-17T00:23:50;13.80;76.80
46926;DHT22;32667;48.248;-1.700;2024-03-17T00:26:16;13.80;76.80
46926;DHT22;32667;48.248;-1.700;2024-03-17T00:28:42;13.80;76.80
46926;DHT22;32667;48.248;-1.700;2024-03-17T00:31:16;13.80;76.70
46926;DHT22;32667;48.248;-1.700;2024-03-17T00:33:42;13.80;76.70
46926;DHT22;32667;48.248;-1.700;2024-03-17T00:36:09;13.80;76.60
46926;DHT22;32667;48.248;-1.700;2024-03-17T00:38:35;13.90;76.60
46926;DHT22;32667;48.248;-1.700;2024-03-17T00:41:03;13.80;76.60
46926;DHT22;32667;48.248;-1.700;2024-03-17T00:43:29;13.90;76.60
46926;DHT22;32667;48.248;-1.700;2024-03-17T00:45:54;13.90;76.60
46926;DHT22;32667;48.248;-1.700;2024-03-17T00:48:25;13.90;76.60
46926;DHT22;32667;48.248;-1.700;2024-03-17T00:50:59;13.90;76.50
46926;DHT22;32667;48.248;-1.700;2024-03-17T00:53:25;13.90;76.60
46926;DHT22;32667;48.248;-1.700;2024-03-17T00:55:55;13.90;76.50
46926;DHT22;32667;48.248;-1.700;2024-03-17T00:58:25;13.90;76.50
46926;DHT22;32667;48.248;-1.700;2024-03-17T01:00:54;13.90;76.50
46926;DHT22;32667;48.248;-1.700;2024-03-17T01:03:20;13.90;76.50
46926;DHT22;32667;48.248;-1.700;2024-03-17T01:05:51;13.90;76.60
46926;DHT22;32667;48.248;-1.700;2024-03-17T01:08:19;13.80;76.50
46926;DHT22;32667;48.248;-1.700;2024-03-17T01:10:48;13.80;76.60
46926;DHT22;32667;48.248;-1.700;2024-03-17T01:13:17;13.80;76.70
46926;DHT22;32667;48.248;-1.700;2024-03-17T01:15:44;13.80;76.70
46926;DHT22;32667;48.248;-1.700;2024-03-17T01:18:09;13.80;76.70
46926;DHT22;32667;48.248;-1.700;2024-03-17T01:20:36;13.80;76.70
46926;DHT22;32667;48.248;-1.700;2024-03-17T01:23:03;13.80;76.70
46926;DHT22;32667;48.248;-1.700;2024-03-17T01:25:35;13.80;76.70
46926;DHT22;32667;48.248;-1.700;2024-03-17T01:28:03;13.80;76.70
46926;DHT22;32667;48.248;-1.700;2024-03-17T01:30:32;13.80;76.70
46926;DHT22;32667;48.248;-1.700;2024-03-17T01:33:00;13.80;76.80
46926;DHT22;32667;48.248;-1.700;2024-03-17T01:35:26;13.80;76.70
46926;DHT22;32667;48.248;-1.700;2024-03-17T01:37:52;13.80;76.80
46926;DHT22;32667;48.248;-1.700;2024-03-17T01:40:21;13.80;76.80
46926;DHT22;32667;48.248;-1.700;2024-03-17T01:42:47;13.70;76.70
46926;DHT22;32667;48.248;-1.700;2024-03-17T01:45:33;13.70;76.70
46926;DHT22;32667;48.248;-1.700;2024-03-17T01:48:01;13.70;76.80
46926;DHT22;32667;48.248;-1.700;2024-03-17T01:50:37;13.80;76.90
46926;DHT22;32667;48.248;-1.700;2024-03-17T01:53:05;13.80;76.80
46926;DHT22;32667;48.248;-1.700;2024-03-17T01:55:37;13.80;76.70
46926;DHT22;32667;48.248;-1.700;2024-03-17T01:58:04;13.80;76.70
46926;DHT22;32667;48.248;-1.700;2024-03-17T02:00:33;13.70;76.60
46926;DHT22;32667;48.248;-1.700;2024-03-17T02:03:05;13.80;76.70
46926;DHT22;32667;48.248;-1.700;2024-03-17T02:05:36;13.80;76.60
46926;DHT22;32667;48.248;-1.700;2024-03-17T02:08:06;13.80;76.70
46926;DHT22;32667;48.248;-1.700;2024-03-17T02:10:40;13.80;76.60
46926;DHT22;32667;48.248;-1.700;2024-03-17T02:13:08;13.80;76.60
46926;DHT22;32667;48.248;-1.700;2024-03-17T02:15:34;13.70;76.60
46926;DHT22;32667;48.248;-1.700;2024-03-17T02:18:00;13.70;76.60
46926;DHT22;32667;48.248;-1.700;2024-03-17T02:20:30;13.70;76.80
46926;DHT22;32667;48.248;-1.700;2024-03-17T02:23:15;13.70;76.70
46926;DHT22;32667;48.248;-1.700;2024-03-17T02:25:40;13.70;76.60
46926;DHT22;32667;48.248;-1.700;2024-03-17T02:28:06;13.70;76.60
46926;DHT22;32667;48.248;-1.700;2024-03-17T02:30:32;13.70;76.60
46926;DHT22;32667;48.248;-1.700;2024-03-17T02:32:58;13.80;76.60
46926;DHT22;32667;48.248;-1.700;2024-03-17T02:35:24;13.80;76.60
46926;DHT22;32667;48.248;-1.700;2024-03-17T02:37:50;13.70;76.50
46926;DHT22;32667;48.248;-1.700;2024-03-17T02:40:16;13.80;76.50
46926;DHT22;32667;48.248;-1.700;2024-03-17T02:42:44;13.80;76.50
46926;DHT22;32667;48.248;-1.700;2024-03-17T02:45:11;13.80;76.60
46926;DHT22;32667;48.248;-1.700;2024-03-17T02:47:43;13.70;76.60
46926;DHT22;32667;48.248;-1.700;2024-03-17T02:50:09;13.70;76.60
46926;DHT22;32667;48.248;-1.700;2024-03-17T02:52:37;13.70;76.60
46926;DHT22;32667;48.248;-1.700;2024-03-17T02:55:05;13.70;76.60
46926;DHT22;32667;48.248;-1.700;2024-03-17T02:57:32;13.80;76.60
46926;DHT22;32667;48.248;-1.700;2024-03-17T03:00:01;13.80;76.60
46926;DHT22;32667;48.248;-1.700;2024-03-17T03:02:30;13.80;76.50
46926;DHT22;32667;48.248;-1.700;2024-03-17T03:04:56;13.80;76.50
46926;DHT22;32667;48.248;-1.700;2024-03-17T03:07:24;13.80;76.50
46926;DHT22;32667;48.248;-1.700;2024-03-17T03:09:51;13.80;76.50
46926;DHT22;32667;48.248;-1.700;2024-03-17T03:12:16;13.80;76.50
46926;DHT22;32667;48.248;-1.700;2024-03-17T03:14:42;13.80;76.50
46926;DHT22;32667;48.248;-1.700;2024-03-17T03:17:08;13.80;76.50
46926;DHT22;32667;48.248;-1.700;2024-03-17T03:19:34;13.80;76.50
46926;DHT22;32667;48.248;-1.700;2024-03-17T03:22:02;13.80;76.50
46926;DHT22;32667;48.248;-1.700;2024-03-17T03:24:28;13.80;76.50
46926;DHT22;32667;48.248;-1.700;2024-03-17T03:26:53;13.80;76.50
46926;DHT22;32667;48.248;-1.700;2024-03-17T03:29:21;13.80;76.50
46926;DHT22;32667;48.248;-1.700;2024-03-17T03:31:47;13.80;76.50
46926;DHT22;32667;48.248;-1.700;2024-03-17T03:34:13;13.80;76.50
46926;DHT22;32667;48.248;-1.700;2024-03-17T03:36:39;13.80;76.60
46926;DHT22;32667;48.248;-1.700;2024-03-17T03:39:05;13.80;76.50
46926;DHT22;32667;48.248;-1.700;2024-03-17T03:41:31;13.80;76.50
46926;DHT22;32667;48.248;-1.700;2024-03-17T03:44:00;13.80;76.50
46926;DHT22;32667;48.248;-1.700;2024-03-17T03:46:26;13.80;76.50
46926;DHT22;32667;48.248;-1.700;2024-03-17T03:48:52;13.80;76.50
46926;DHT22;32667;48.248;-1.700;2024-03-17T03:51:18;13.80;76.50
46926;DHT22;32667;48.248;-1.700;2024-03-17T03:53:44;13.80;76.40
46926;DHT22;32667;48.248;-1.700;2024-03-17T03:56:10;13.90;76.50
46926;DHT22;32667;48.248;-1.700;2024-03-17T03:58:38;13.80;77.00
46926;DHT22;32667;48.248;-1.700;2024-03-17T04:01:06;13.80;76.50
46926;DHT22;32667;48.248;-1.700;2024-03-17T04:03:33;13.80;76.50
46926;DHT22;32667;48.248;-1.700;2024-03-17T04:06:10;13.80;76.50
46926;DHT22;32667;48.248;-1.700;2024-03-17T04:08:38;13.90;76.50
46926;DHT22;32667;48.248;-1.700;2024-03-17T04:11:05;13.90;76.50
46926;DHT22;32667;48.248;-1.700;2024-03-17T04:13:31;13.90;76.50
46926;DHT22;32667;48.248;-1.700;2024-03-17T04:16:07;13.80;76.40
46926;DHT22;32667;48.248;-1.700;2024-03-17T04:18:34;13.80;76.50
46926;DHT22;32667;48.248;-1.700;2024-03-17T04:21:04;13.80;76.50
46926;DHT22;32667;48.248;-1.700;2024-03-17T04:23:31;13.80;76.50
46926;DHT22;32667;48.248;-1.700;2024-03-17T04:25:58;13.80;76.50
46926;DHT22;32667;48.248;-1.700;2024-03-17T04:28:24;13.80;76.50
46926;DHT22;32667;48.248;-1.700;2024-03-17T04:30:49;13.80;76.50
46926;DHT22;32667;48.248;-1.700;2024-03-17T04:33:17;13.80;76.50
46926;DHT22;32667;48.248;-1.700;2024-03-17T04:35:46;13.80;76.40
46926;DHT22;32667;48.248;-1.700;2024-03-17T04:38:11;13.90;76.40
46926;DHT22;32667;48.248;-1.700;2024-03-17T04:40:40;13.90;76.40
46926;DHT22;32667;48.248;-1.700;2024-03-17T04:43:09;13.80;76.40
46926;DHT22;32667;48.248;-1.700;2024-03-17T04:45:37;13.90;76.40
46926;DHT22;32667;48.248;-1.700;2024-03-17T04:48:03;13.80;76.40
46926;DHT22;32667;48.248;-1.700;2024-03-17T04:50:38;13.80;76.40
46926;DHT22;32667;48.248;-1.700;2024-03-17T04:53:05;13.90;76.50
46926;DHT22;32667;48.248;-1.700;2024-03-17T04:55:31;13.80;76.40
46926;DHT22;32667;48.248;-1.700;2024-03-17T04:58:00;13.80;76.50
46926;DHT22;32667;48.248;-1.700;2024-03-17T05:00:28;13.80;76.50
46926;DHT22;32667;48.248;-1.700;2024-03-17T05:02:54;13.90;76.50
46926;DHT22;32667;48.248;-1.700;2024-03-17T05:05:19;13.90;76.40
46926;DHT22;32667;48.248;-1.700;2024-03-17T05:07:48;13.90;76.40
46926;DHT22;32667;48.248;-1.700;2024-03-17T05:10:13;13.90;76.30
46926;DHT22;32667;48.248;-1.700;2024-03-17T05:12:39;13.90;76.30
46926;DHT22;32667;48.248;-1.700;2024-03-17T05:15:05;13.90;76.30
46926;DHT22;32667;48.248;-1.700;2024-03-17T05:17:33;13.90;76.30
46926;DHT22;32667;48.248;-1.700;2024-03-17T05:19:59;13.90;76.30
46926;DHT22;32667;48.248;-1.700;2024-03-17T05:22:24;14.00;76.30
46926;DHT22;32667;48.248;-1.700;2024-03-17T05:24:50;14.00;76.30
46926;DHT22;32667;48.248;-1.700;2024-03-17T05:27:16;13.90;76.30
46926;DHT22;32667;48.248;-1.700;2024-03-17T05:29:42;14.00;76.30
46926;DHT22;32667;48.248;-1.700;2024-03-17T05:32:07;13.90;76.30
46926;DHT22;32667;48.248;-1.700;2024-03-17T05:34:35;13.90;76.30
46926;DHT22;32667;48.248;-1.700;2024-03-17T05:37:03;13.90;76.40
46926;DHT22;32667;48.248;-1.700;2024-03-17T05:39:31;13.90;76.40
46926;DHT22;32667;48.248;-1.700;2024-03-17T05:41:57;13.90;76.40
46926;DHT22;32667;48.248;-1.700;2024-03-17T05:44:23;13.90;76.40
46926;DHT22;32667;48.248;-1.700;2024-03-17T05:46:51;13.90;76.50
46926;DHT22;32667;48.248;-1.700;2024-03-17T05:49:19;13.90;76.40
46926;DHT22;32667;48.248;-1.700;2024-03-17T05:51:46;13.90;76.50
46926;DHT22;32667;48.248;-1.700;2024-03-17T05:54:12;13.90;76.40
46926;DHT22;32667;48.248;-1.700;2024-03-17T05:56:38;13.90;76.40
46926;DHT22;32667;48.248;-1.700;2024-03-17T05:59:05;13.90;76.40
46926;DHT22;32667;48.248;-1.700;2024-03-17T06:01:31;13.90;76.40
46926;DHT22;32667;48.248;-1.700;2024-03-17T06:04:00;14.00;76.50
46926;DHT22;32667;48.248;-1.700;2024-03-17T06:06:29;13.90;76.40
46926;DHT22;32667;48.248;-1.700;2024-03-17T06:09:04;13.90;76.50
46926;DHT22;32667;48.248;-1.700;2024-03-17T06:11:34;14.00;76.50
46926;DHT22;32667;48.248;-1.700;2024-03-17T06:14:00;14.00;76.50
46926;DHT22;32667;48.248;-1.700;2024-03-17T06:16:30;14.00;76.50
46926;DHT22;32667;48.248;-1.700;2024-03-17T06:18:58;13.90;76.40
46926;DHT22;32667;48.248;-1.700;2024-03-17T06:21:24;13.90;76.40
46926;DHT22;32667;48.248;-1.700;2024-03-17T06:23:51;13.90;76.40
46926;DHT22;32667;48.248;-1.700;2024-03-17T06:26:17;13.90;76.50
46926;DHT22;32667;48.248;-1.700;2024-03-17T06:28:42;13.90;76.50
46926;DHT22;32667;48.248;-1.700;2024-03-17T06:31:09;13.90;76.50
46926;DHT22;32667;48.248;-1.700;2024-03-17T06:33:35;13.90;76.50
46926;DHT22;32667;48.248;-1.700;2024-03-17T06:36:05;13.90;76.50
46926;DHT22;32667;48.248;-1.700;2024-03-17T06:38:32;13.90;76.50
46926;DHT22;32667;48.248;-1.700;2024-03-17T06:40:58;13.90;76.50
46926;DHT22;32667;48.248;-1.700;2024-03-17T06:43:23;13.90;76.50
46926;DHT22;32667;48.248;-1.700;2024-03-17T06:46:00;13.90;76.40
46926;DHT22;32667;48.248;-1.700;2024-03-17T06:48:26;13.90;76.40
46926;DHT22;32667;48.248;-1.700;2024-03-17T06:50:53;13.90;76.40
46926;DHT22;32667;48.248;-1.700;2024-03-17T06:53:23;13.90;76.40
46926;DHT22;32667;48.248;-1.700;2024-03-17T06:55:56;13.90;76.40
46926;DHT22;32667;48.248;-1.700;2024-03-17T06:58:23;13.90;76.40
46926;DHT22;32667;48.248;-1.700;2024-03-17T07:00:58;13.90;76.30
46926;DHT22;32667;48.248;-1.700;2024-03-17T07:03:29;14.00;76.30
46926;DHT22;32667;48.248;-1.700;2024-03-17T07:05:57;14.00;76.30
46926;DHT22;32667;48.248;-1.700;2024-03-17T07:08:23;14.00;76.30
46926;DHT22;32667;48.248;-1.700;2024-03-17T07:11:02;14.00;76.20
46926;DHT22;32667;48.248;-1.700;2024-03-17T07:13:39;14.00;76.20
46926;DHT22;32667;48.248;-1.700;2024-03-17T07:16:07;14.00;76.20
46926;DHT22;32667;48.248;-1.700;2024-03-17T07:18:34;14.00;76.20
46926;DHT22;32667;48.248;-1.700;2024-03-17T07:21:01;14.10;76.20
46926;DHT22;32667;48.248;-1.700;2024-03-17T07:23:30;14.10;76.10
46926;DHT22;32667;48.248;-1.700;2024-03-17T07:25:58;14.10;76.10
46926;DHT22;32667;48.248;-1.700;2024-03-17T07:28:24;14.10;76.10
46926;DHT22;32667;48.248;-1.700;2024-03-17T07:30:55;14.10;76.10
46926;DHT22;32667;48.248;-1.700;2024-03-17T07:33:21;14.10;76.10
46926;DHT22;32667;48.248;-1.700;2024-03-17T07:35:52;14.10;76.10
46926;DHT22;32667;48.248;-1.700;2024-03-17T07:38:18;14.20;76.20
46926;DHT22;32667;48.248;-1.700;2024-03-17T07:40:59;14.20;76.20
46926;DHT22;32667;48.248;-1.700;2024-03-17T07:43:30;14.20;76.10
46926;DHT22;32667;48.248;-1.700;2024-03-17T07:46:09;14.30;76.00
46926;DHT22;32667;48.248;-1.700;2024-03-17T07:48:42;14.30;76.00
46926;DHT22;32667;48.248;-1.700;2024-03-17T07:51:13;14.30;75.90
46926;DHT22;32667;48.248;-1.700;2024-03-17T07:53:43;14.30;75.80
46926;DHT22;32667;48.248;-1.700;2024-03-17T07:56:12;14.30;75.80
46926;DHT22;32667;48.248;-1.700;2024-03-17T07:58:43;14.30;75.90
46926;DHT22;32667;48.248;-1.700;2024-03-17T08:01:11;14.30;75.90
46926;DHT22;32667;48.248;-1.700;2024-03-17T08:03:41;14.30;75.90
46926;DHT22;32667;48.248;-1.700;2024-03-17T08:06:09;14.30;76.00
46926;DHT22;32667;48.248;-1.700;2024-03-17T08:08:38;14.30;76.00
46926;DHT22;32667;48.248;-1.700;2024-03-17T08:11:04;14.30;76.00
46926;DHT22;32667;48.248;-1.700;2024-03-17T08:13:32;14.30;75.90
46926;DHT22;32667;48.248;-1.700;2024-03-17T08:16:03;14.30;75.90
46926;DHT22;32667;48.248;-1.700;2024-03-17T08:18:29;14.30;76.00
46926;DHT22;32667;48.248;-1.700;2024-03-17T08:20:55;14.30;76.10
46926;DHT22;32667;48.248;-1.700;2024-03-17T08:23:22;14.40;76.40
46926;DHT22;32667;48.248;-1.700;2024-03-17T08:26:00;14.40;76.00
46926;DHT22;32667;48.248;-1.700;2024-03-17T08:28:27;14.40;76.00
46926;DHT22;32667;48.248;-1.700;2024-03-17T08:30:57;14.40;76.00
46926;DHT22;32667;48.248;-1.700;2024-03-17T08:33:24;14.40;76.00
46926;DHT22;32667;48.248;-1.700;2024-03-17T08:36:04;14.40;76.00
46926;DHT22;32667;48.248;-1.700;2024-03-17T08:38:34;14.40;76.00
46926;DHT22;32667;48.248;-1.700;2024-03-17T08:41:08;14.40;76.00
46926;DHT22;32667;48.248;-1.700;2024-03-17T08:43:35;14.50;75.90
46926;DHT22;32667;48.248;-1.700;2024-03-17T08:46:03;14.50;75.80
46926;DHT22;32667;48.248;-1.700;2024-03-17T08:48:32;14.50;75.90
46926;DHT22;32667;48.248;-1.700;2024-03-17T08:51:00;14.60;75.90
46926;DHT22;32667;48.248;-1.700;2024-03-17T08:53:27;14.60;75.80
46926;DHT22;32667;48.248;-1.700;2024-03-17T08:55:54;14.60;75.80
46926;DHT22;32667;48.248;-1.700;2024-03-17T08:58:23;14.60;75.80
46926;DHT22;32667;48.248;-1.700;2024-03-17T09:00:49;14.60;75.80
46926;DHT22;32667;48.248;-1.700;2024-03-17T09:03:20;14.60;75.80
46926;DHT22;32667;48.248;-1.700;2024-03-17T09:05:47;14.70;75.80
46926;DHT22;32667;48.248;-1.700;2024-03-17T09:08:18;14.70;75.80
46926;DHT22;32667;48.248;-1.700;2024-03-17T09:10:46;14.70;75.70
46926;DHT22;32667;48.248;-1.700;2024-03-17T09:13:16;14.70;76.30
46926;DHT22;32667;48.248;-1.700;2024-03-17T09:15:53;14.80;75.80
46926;DHT22;32667;48.248;-1.700;2024-03-17T09:18:19;14.80;75.80
46926;DHT22;32667;48.248;-1.700;2024-03-17T09:20:46;14.80;75.70
46926;DHT22;32667;48.248;-1.700;2024-03-17T09:23:12;14.80;75.80
46926;DHT22;32667;48.248;-1.700;2024-03-17T09:25:39;14.90;75.80
46926;DHT22;32667;48.248;-1.700;2024-03-17T09:28:07;14.90;75.70
46926;DHT22;32667;48.248;-1.700;2024-03-17T09:30:36;14.90;76.20
46926;DHT22;32667;48.248;-1.700;2024-03-17T09:33:02;15.00;75.50
46926;DHT22;32667;48.248;-1.700;2024-03-17T09:35:30;15.10;75.50
46926;DHT22;32667;48.248;-1.700;2024-03-17T09:37:58;15.10;75.30
46926;DHT22;32667;48.248;-1.700;2024-03-17T09:40:23;15.10;75.30
46926;DHT22;32667;48.248;-1.700;2024-03-17T09:42:49;15.20;75.40
46926;DHT22;32667;48.248;-1.700;2024-03-17T09:45:18;15.20;75.30
46926;DHT22;32667;48.248;-1.700;2024-03-17T09:47:45;15.30;75.30
46926;DHT22;32667;48.248;-1.700;2024-03-17T09:50:18;15.30;75.20
46926;DHT22;32667;48.248;-1.700;2024-03-17T09:52:45;15.40;75.20
46926;DHT22;32667;48.248;-1.700;2024-03-17T09:55:16;15.40;75.30
46926;DHT22;32667;48.248;-1.700;2024-03-17T09:57:43;15.30;75.20
46926;DHT22;32667;48.248;-1.700;2024-03-17T10:00:13;15.30;75.30
46926;DHT22;32667;48.248;-1.700;2024-03-17T10:02:46;15.30;75.40
46926;DHT22;32667;48.248;-1.700;2024-03-17T10:05:19;15.30;75.50
46926;DHT22;32667;48.248;-1.700;2024-03-17T10:07:48;15.40;75.50
46926;DHT22;32667;48.248;-1.700;2024-03-17T10:10:15;15.50;75.40
46926;DHT22;32667;48.248;-1.700;2024-03-17T10:12:50;15.50;75.30
46926;DHT22;32667;48.248;-1.700;2024-03-17T10:15:19;15.60;75.20
46926;DHT22;32667;48.248;-1.700;2024-03-17T10:17:49;15.60;75.00
46926;DHT22;32667;48.248;-1.700;2024-03-17T10:20:17;15.60;75.00
46926;DHT22;32667;48.248;-1.700;2024-03-17T10:23:06;15.70;75.10
46926;DHT22;32667;48.248;-1.700;2024-03-17T10:25:34;15.80;75.10
46926;DHT22;32667;48.248;-1.700;2024-03-17T10:28:13;15.80;75.00
46926;DHT22;32667;48.248;-1.700;2024-03-17T10:30:39;15.90;74.90
46926;DHT22;32667;48.248;-1.700;2024-03-17T10:33:06;15.90;75.00
46926;DHT22;32667;48.248;-1.700;2024-03-17T10:35:39;15.90;75.00
46926;DHT22;32667;48.248;-1.700;2024-03-17T10:38:06;15.90;75.00
46926;DHT22;32667;48.248;-1.700;2024-03-17T10:40:33;16.00;75.00
46926;DHT22;32667;48.248;-1.700;2024-03-17T10:43:02;16.20;74.80
46926;DHT22;32667;48.248;-1.700;2024-03-17T10:45:28;16.30;74.60
46926;DHT22;32667;48.248;-1.700;2024-03-17T10:48:09;16.40;74.40
46926;DHT22;32667;48.248;-1.700;2024-03-17T10:50:39;16.50;74.50
46926;DHT22;32667;48.248;-1.700;2024-03-17T10:53:07;16.40;74.50
46926;DHT22;32667;48.248;-1.700;2024-03-17T10:55:44;16.50;74.60
46926;DHT22;32667;48.248;-1.700;2024-03-17T10:58:36;16.50;74.50
46926;DHT22;32667;48.248;-1.700;2024-03-17T11:01:04;16.60;74.50
46926;DHT22;32667;48.248;-1.700;2024-03-17T11:03:32;16.60;74.40
46926;DHT22;32667;48.248;-1.700;2024-03-17T11:06:04;16.60;74.40
46926;DHT22;32667;48.248;-1.700;2024-03-17T11:08:38;16.60;74.50
46926;DHT22;32667;48.248;-1.700;2024-03-17T11:11:05;16.60;74.60
46926;DHT22;32667;48.248;-1.700;2024-03-17T11:13:33;16.60;74.60
46926;DHT22;32667;48.248;-1.700;2024-03-17T11:16:25;16.70;74.60
46926;DHT22;32667;48.248;-1.700;2024-03-17T11:18:54;16.70;74.60
46926;DHT22;32667;48.248;-1.700;2024-03-17T11:21:30;16.80;74.50
46926;DHT22;32667;48.248;-1.700;2024-03-17T11:24:00;16.90;74.40
46926;DHT22;32667;48.248;-1.700;2024-03-17T11:26:29;16.90;75.00
46926;DHT22;32667;48.248;-1.700;2024-03-17T11:28:55;16.90;74.40
46926;DHT22;32667;48.248;-1.700;2024-03-17T11:31:40;17.00;74.40
46926;DHT22;32667;48.248;-1.700;2024-03-17T11:34:32;17.10;74.40
46926;DHT22;32667;48.248;-1.700;2024-03-17T11:37:02;17.10;74.20
46926;DHT22;32667;48.248;-1.700;2024-03-17T11:39:53;17.20;74.20
46926;DHT22;32667;48.248;-1.700;2024-03-17T11:42:23;17.20;74.20
46926;DHT22;32667;48.248;-1.700;2024-03-17T11:44:57;17.20;74.30
46926;DHT22;32667;48.248;-1.700;2024-03-17T11:47:33;17.30;74.30
46926;DHT22;32667;48.248;-1.700;2024-03-17T11:50:02;17.40;74.20
46926;DHT22;32667;48.248;-1.700;2024-03-17T11:52:28;17.50;74.00
46926;DHT22;32667;48.248;-1.700;2024-03-17T11:54:54;17.50;73.90
46926;DHT22;32667;48.248;-1.700;2024-03-17T11:57:25;17.60;74.00
46926;DHT22;32667;48.248;-1.700;2024-03-17T11:59:57;17.70;74.00
46926;DHT22;32667;48.248;-1.700;2024-03-17T12:02:30;17.70;73.90
46926;DHT22;32667;48.248;-1.700;2024-03-17T12:05:04;17.60;73.90
46926;DHT22;32667;48.248;-1.700;2024-03-17T12:07:31;17.60;74.00
46926;DHT22;32667;48.248;-1.700;2024-03-17T12:09:57;17.60;74.10
46926;DHT22;32667;48.248;-1.700;2024-03-17T12:12:25;17.60;74.10
46926;DHT22;32667;48.248;-1.700;2024-03-17T12:14:56;17.60;74.20
46926;DHT22;32667;48.248;-1.700;2024-03-17T12:17:23;17.60;74.30
46926;DHT22;32667;48.248;-1.700;2024-03-17T12:19:49;17.60;74.20
46926;DHT22;32667;48.248;-1.700;2024-03-17T12:22:20;17.60;74.20
46926;DHT22;32667;48.248;-1.700;2024-03-17T12:24:56;17.60;74.20
46926;DHT22;32667;48.248;-1.700;2024-03-17T12:27:26;17.70;74.20
46926;DHT22;32667;48.248;-1.700;2024-03-17T12:29:54;17.60;74.10
46926;DHT22;32667;48.248;-1.700;2024-03-17T12:32:22;17.50;74.20
46926;DHT22;32667;48.248;-1.700;2024-03-17T12:34:57;17.50;74.50
46926;DHT22;32667;48.248;-1.700;2024-03-17T12:37:25;17.50;74.60
46926;DHT22;32667;48.248;-1.700;2024-03-17T12:39:56;17.60;74.60
46926;DHT22;32667;48.248;-1.700;2024-03-17T12:42:28;17.60;74.50
46926;DHT22;32667;48.248;-1.700;2024-03-17T12:45:00;17.70;74.40
46926;DHT22;32667;48.248;-1.700;2024-03-17T12:47:32;17.90;74.10
46926;DHT22;32667;48.248;-1.700;2024-03-17T12:50:01;18.00;73.80
46926;DHT22;32667;48.248;-1.700;2024-03-17T12:52:33;18.20;73.70
46926;DHT22;32667;48.248;-1.700;2024-03-17T12:55:25;18.20;73.60
46926;DHT22;32667;48.248;-1.700;2024-03-17T12:58:10;18.20;73.60
46926;DHT22;32667;48.248;-1.700;2024-03-17T13:01:05;18.30;73.50
46926;DHT22;32667;48.248;-1.700;2024-03-17T13:03:36;18.40;73.60
46926;DHT22;32667;48.248;-1.700;2024-03-17T13:06:06;18.40;73.40
46926;DHT22;32667;48.248;-1.700;2024-03-17T13:08:35;18.60;73.40
46926;DHT22;32667;48.248;-1.700;2024-03-17T13:11:02;18.60;73.80
46926;DHT22;32667;48.248;-1.700;2024-03-17T13:13:34;18.70;73.20
46926;DHT22;32667;48.248;-1.700;2024-03-17T13:16:02;18.60;73.30
46926;DHT22;32667;48.248;-1.700;2024-03-17T13:18:28;18.50;74.10
46926;DHT22;32667;48.248;-1.700;2024-03-17T13:20:56;18.40;73.60
46926;DHT22;32667;48.248;-1.700;2024-03-17T13:23:23;18.40;73.90
46926;DHT22;32667;48.248;-1.700;2024-03-17T13:25:54;18.30;74.00
46926;DHT22;32667;48.248;-1.700;2024-03-17T13:28:20;18.40;74.00
46926;DHT22;32667;48.248;-1.700;2024-03-17T13:30:46;18.40;74.00
46926;DHT22;32667;48.248;-1.700;2024-03-17T13:33:13;18.40;74.00
46926;DHT22;32667;48.248;-1.700;2024-03-17T13:35:40;18.40;74.00
46926;DHT22;32667;48.248;-1.700;2024-03-17T13:38:07;18.40;74.00
46926;DHT22;32667;48.248;-1.700;2024-03-17T13:40:43;18.50;74.00
46926;DHT22;32667;48.248;-1.700;2024-03-17T13:43:09;18.50;73.90
46926;DHT22;32667;48.248;-1.700;2024-03-17T13:45:42;18.60;73.90
46926;DHT22;32667;48.248;-1.700;2024-03-17T13:48:09;18.60;73.80
46926;DHT22;32667;48.248;-1.700;2024-03-17T13:50:39;18.50;73.90
46926;DHT22;32667;48.248;-1.700;2024-03-17T13:53:11;18.50;74.00
46926;DHT22;32667;48.248;-1.700;2024-03-17T13:55:47;18.40;74.20
46926;DHT22;32667;48.248;-1.700;2024-03-17T13:58:13;18.40;74.20
46926;DHT22;32667;48.248;-1.700;2024-03-17T14:00:42;18.30;74.30
46926;DHT22;32667;48.248;-1.700;2024-03-17T14:03:08;18.30;74.30
46926;DHT22;32667;48.248;-1.700;2024-03-17T14:05:35;18.30;74.40
46926;DHT22;32667;48.248;-1.700;2024-03-17T14:08:01;18.20;74.50
46926;DHT22;32667;48.248;-1.700;2024-03-17T14:10:28;18.20;74.60
46926;DHT22;32667;48.248;-1.700;2024-03-17T14:12:54;18.20;74.60
46926;DHT22;32667;48.248;-1.700;2024-03-17T14:15:20;18.20;74.60
46926;DHT22;32667;48.248;-1.700;2024-03-17T14:17:49;18.20;74.60
46926;DHT22;32667;48.248;-1.700;2024-03-17T14:20:16;18.20;74.60
46926;DHT22;32667;48.248;-1.700;2024-03-17T14:22:54;18.00;74.70
46926;DHT22;32667;48.248;-1.700;2024-03-17T14:25:27;17.90;74.80
46926;DHT22;32667;48.248;-1.700;2024-03-17T14:27:54;17.90;75.00
46926;DHT22;32667;48.248;-1.700;2024-03-17T14:30:20;17.80;75.20
46926;DHT22;32667;48.248;-1.700;2024-03-17T14:32:46;17.90;75.20
46926;DHT22;32667;48.248;-1.700;2024-03-17T14:35:14;17.80;75.20
46926;DHT22;32667;48.248;-1.700;2024-03-17T14:37:41;17.80;75.10
46926;DHT22;32667;48.248;-1.700;2024-03-17T14:40:09;17.90;75.10
46926;DHT22;32667;48.248;-1.700;2024-03-17T14:42:42;17.90;74.90
46926;DHT22;32667;48.248;-1.700;2024-03-17T14:45:11;18.00;74.80
46926;DHT22;32667;48.248;-1.700;2024-03-17T14:47:39;17.90;74.70
46926;DHT22;32667;48.248;-1.700;2024-03-17T14:50:05;17.90;74.80
46926;DHT22;32667;48.248;-1.700;2024-03-17T14:52:31;17.90;74.80
46926;DHT22;32667;48.248;-1.700;2024-03-17T14:54:57;17.90;74.90
46926;DHT22;32667;48.248;-1.700;2024-03-17T14:57:23;17.90;75.00
46926;DHT22;32667;48.248;-1.700;2024-03-17T14:59:48;17.90;75.00
46926;DHT22;32667;48.248;-1.700;2024-03-17T15:02:14;17.90;74.90
46926;DHT22;32667;48.248;-1.700;2024-03-17T15:04:41;18.00;74.80
46926;DHT22;32667;48.248;-1.700;2024-03-17T15:07:06;18.00;74.80
46926;DHT22;32667;48.248;-1.700;2024-03-17T15:09:33;18.00;74.70
46926;DHT22;32667;48.248;-1.700;2024-03-17T15:11:59;18.00;74.80
46926;DHT22;32667;48.248;-1.700;2024-03-17T15:14:27;17.90;74.80
46926;DHT22;32667;48.248;-1.700;2024-03-17T15:16:52;17.90;74.80
46926;DHT22;32667;48.248;-1.700;2024-03-17T15:19:21;17.90;74.80
46926;DHT22;32667;48.248;-1.700;2024-03-17T15:21:49;17.90;74.80
46926;DHT22;32667;48.248;-1.700;2024-03-17T15:24:16;17.90;74.80
46926;DHT22;32667;48.248;-1.700;2024-03-17T15:26:42;18.00;74.80